Marcus, Iowa
Current Conditions -  °F | °C
As of 10:15 PM on Thursday 27 Nov 2014 (Local Time) from KCKP Reporting Station
Scattered Clouds Scattered Clouds  
Wind Chill:   Ceiling: Unl
Heat Index: 13°   Visibility: 10mi
Dew Point:   Wind: 9mph
Humidity: 83%   Direction: 140°SE
Pressure: 30.17"   Gusts: NA
Location:  42.83°N, 95.81°W
Report Text: KCKP 280415Z AUTO 14008KT 10SM SCT120 M11/M13 A3017 RMK AO2 T11061130
Loading
Personal Weather Stations






























Interactive Weather Map New forecast layout! Learn more

10-Day Weather Forecast

Advertisements
Track Severe Weather on mobile